sensor_id;sensor_type;location;lat;lon;timestamp;pressure;altitude;pressure_sealevel;temperature;humidity
47670;BME280;33408;52.062;11.722;2022-10-22T00:01:43;100658.03;;;12.26;100.00
47670;BME280;33408;52.062;11.722;2022-10-22T00:04:09;100664.97;;;12.25;100.00
47670;BME280;33408;52.062;11.722;2022-10-22T00:06:36;100681.47;;;12.24;100.00
47670;BME280;33408;52.062;11.722;2022-10-22T00:09:05;100676.97;;;12.31;100.00
47670;BME280;33408;52.062;11.722;2022-10-22T00:11:32;100695.09;;;12.34;100.00
47670;BME280;33408;52.062;11.722;2022-10-22T00:13:58;100696.88;;;12.32;100.00
47670;BME280;33408;52.062;11.722;2022-10-22T00:16:25;100683.09;;;12.28;100.00
47670;BME280;33408;52.062;11.722;2022-10-22T00:18:51;100692.84;;;12.20;100.00
47670;BME280;33408;52.062;11.722;2022-10-22T00:21:18;100685.94;;;12.19;100.00
47670;BME280;33408;52.062;11.722;2022-10-22T00:23:44;100689.41;;;12.19;100.00
47670;BME280;33408;52.062;11.722;2022-10-22T00:26:12;100697.22;;;12.18;100.00
47670;BME280;33408;52.062;11.722;2022-10-22T00:28:39;100695.41;;;12.21;100.00
47670;BME280;33408;52.062;11.722;2022-10-22T00:31:05;100703.41;;;12.12;100.00
47670;BME280;33408;52.062;11.722;2022-10-22T00:33:33;100705.88;;;12.18;100.00
47670;BME280;33408;52.062;11.722;2022-10-22T00:35:59;100700.75;;;12.15;100.00
47670;BME280;33408;52.062;11.722;2022-10-22T00:38:26;100682.44;;;12.20;100.00
47670;BME280;33408;52.062;11.722;2022-10-22T00:40:52;100682.31;;;12.25;100.00
47670;BME280;33408;52.062;11.722;2022-10-22T00:43:20;100684.72;;;12.32;100.00
47670;BME280;33408;52.062;11.722;2022-10-22T00:45:47;100686.56;;;12.29;100.00
47670;BME280;33408;52.062;11.722;2022-10-22T00:48:16;100683.91;;;12.30;100.00
47670;BME280;33408;52.062;11.722;2022-10-22T00:50:46;100688.09;;;12.36;100.00
47670;BME280;33408;52.062;11.722;2022-10-22T00:53:18;100678.56;;;12.36;100.00
47670;BME280;33408;52.062;11.722;2022-10-22T00:55:47;100673.19;;;12.43;100.00
47670;BME280;33408;52.062;11.722;2022-10-22T00:58:14;100678.47;;;12.39;100.00
47670;BME280;33408;52.062;11.722;2022-10-22T01:00:42;100683.56;;;12.43;100.00
47670;BME280;33408;52.062;11.722;2022-10-22T01:03:10;100680.13;;;12.42;100.00
47670;BME280;33408;52.062;11.722;2022-10-22T01:05:40;100680.00;;;12.47;100.00
47670;BME280;33408;52.062;11.722;2022-10-22T01:08:13;100673.84;;;12.49;100.00
47670;BME280;33408;52.062;11.722;2022-10-22T01:10:54;100668.63;;;12.51;100.00
47670;BME280;33408;52.062;11.722;2022-10-22T01:13:32;100659.97;;;12.50;100.00
47670;BME280;33408;52.062;11.722;2022-10-22T01:16:08;100655.72;;;12.48;100.00
47670;BME280;33408;52.062;11.722;2022-10-22T01:18:43;100668.78;;;12.46;100.00
47670;BME280;33408;52.062;11.722;2022-10-22T01:21:24;100667.91;;;12.46;100.00
47670;BME280;33408;52.062;11.722;2022-10-22T01:24:16;100672.28;;;12.44;100.00
47670;BME280;33408;52.062;11.722;2022-10-22T01:29:57;100665.28;;;12.46;100.00
47670;BME280;33408;52.062;11.722;2022-10-22T01:32:27;100666.16;;;12.46;100.00
47670;BME280;33408;52.062;11.722;2022-10-22T01:34:59;100662.63;;;12.49;100.00
47670;BME280;33408;52.062;11.722;2022-10-22T01:37:29;100660.84;;;12.49;100.00
47670;BME280;33408;52.062;11.722;2022-10-22T01:39:56;100657.47;;;12.47;100.00
47670;BME280;33408;52.062;11.722;2022-10-22T01:42:24;100654.06;;;12.45;100.00
47670;BME280;33408;52.062;11.722;2022-10-22T01:44:50;100648.84;;;12.45;100.00
47670;BME280;33408;52.062;11.722;2022-10-22T01:47:29;100656.66;;;12.45;100.00
47670;BME280;33408;52.062;11.722;2022-10-22T01:50:09;100653.38;;;12.38;100.00
47670;BME280;33408;52.062;11.722;2022-10-22T01:52:55;100651.56;;;12.40;100.00
47670;BME280;33408;52.062;11.722;2022-10-22T01:55:28;100654.25;;;12.37;100.00
47670;BME280;33408;52.062;11.722;2022-10-22T01:58:02;100648.41;;;12.29;100.00
47670;BME280;33408;52.062;11.722;2022-10-22T02:00:30;100655.22;;;12.35;100.00
47670;BME280;33408;52.062;11.722;2022-10-22T02:03:02;100658.81;;;12.29;100.00
47670;BME280;33408;52.062;11.722;2022-10-22T02:05:36;100665.56;;;12.36;100.00
47670;BME280;33408;52.062;11.722;2022-10-22T02:08:08;100661.22;;;12.37;100.00
47670;BME280;33408;52.062;11.722;2022-10-22T02:10:36;100663.78;;;12.38;100.00
47670;BME280;33408;52.062;11.722;2022-10-22T02:13:07;100657.81;;;12.35;100.00
47670;BME280;33408;52.062;11.722;2022-10-22T02:15:36;100661.16;;;12.38;100.00
47670;BME280;33408;52.062;11.722;2022-10-22T02:18:05;100661.16;;;12.38;100.00
47670;BME280;33408;52.062;11.722;2022-10-22T02:20:35;100657.56;;;12.43;100.00
47670;BME280;33408;52.062;11.722;2022-10-22T02:23:03;100653.28;;;12.42;100.00
47670;BME280;33408;52.062;11.722;2022-10-22T02:25:31;100658.41;;;12.45;100.00
47670;BME280;33408;52.062;11.722;2022-10-22T02:28:03;100649.78;;;12.43;100.00
47670;BME280;33408;52.062;11.722;2022-10-22T02:30:34;100648.78;;;12.48;100.00
47670;BME280;33408;52.062;11.722;2022-10-22T02:33:05;100651.53;;;12.42;100.00
47670;BME280;33408;52.062;11.722;2022-10-22T02:35:33;100651.50;;;12.44;100.00
47670;BME280;33408;52.062;11.722;2022-10-22T02:38:01;100644.66;;;12.39;100.00
47670;BME280;33408;52.062;11.722;2022-10-22T02:40:29;100650.94;;;12.32;100.00
47670;BME280;33408;52.062;11.722;2022-10-22T02:42:56;100646.47;;;12.37;100.00
47670;BME280;33408;52.062;11.722;2022-10-22T02:45:23;100653.28;;;12.42;100.00
47670;BME280;33408;52.062;11.722;2022-10-22T02:47:50;100655.81;;;12.45;100.00
47670;BME280;33408;52.062;11.722;2022-10-22T02:50:18;100654.81;;;12.49;100.00
47670;BME280;33408;52.062;11.722;2022-10-22T02:52:45;100655.63;;;12.51;100.00
47670;BME280;33408;52.062;11.722;2022-10-22T02:55:11;100655.53;;;12.54;100.00
47670;BME280;33408;52.062;11.722;2022-10-22T02:57:38;100662.38;;;12.58;100.00
47670;BME280;33408;52.062;11.722;2022-10-22T03:00:06;100664.88;;;12.61;100.00
47670;BME280;33408;52.062;11.722;2022-10-22T03:02:33;100672.69;;;12.61;100.00
47670;BME280;33408;52.062;11.722;2022-10-22T03:05:00;100666.69;;;12.59;100.00
47670;BME280;33408;52.062;11.722;2022-10-22T03:07:28;100674.34;;;12.64;100.00
47670;BME280;33408;52.062;11.722;2022-10-22T03:09:54;100678.00;;;12.56;100.00
47670;BME280;33408;52.062;11.722;2022-10-22T03:12:21;100685.69;;;12.61;100.00
47670;BME280;33408;52.062;11.722;2022-10-22T03:14:47;100680.41;;;12.64;100.00
47670;BME280;33408;52.062;11.722;2022-10-22T03:17:14;100678.53;;;12.69;100.00
47670;BME280;33408;52.062;11.722;2022-10-22T03:19:40;100682.78;;;12.72;100.00
47670;BME280;33408;52.062;11.722;2022-10-22T03:22:12;100685.31;;;12.73;100.00
47670;BME280;33408;52.062;11.722;2022-10-22T03:24:44;100686.28;;;12.71;100.00
47670;BME280;33408;52.062;11.722;2022-10-22T03:27:14;100685.56;;;12.66;100.00
47670;BME280;33408;52.062;11.722;2022-10-22T03:29:42;100683.72;;;12.69;100.00
47670;BME280;33408;52.062;11.722;2022-10-22T03:32:11;100687.94;;;12.73;100.00
47670;BME280;33408;52.062;11.722;2022-10-22T03:34:38;100698.25;;;12.76;100.00
47670;BME280;33408;52.062;11.722;2022-10-22T03:37:04;100692.13;;;12.79;100.00
47670;BME280;33408;52.062;11.722;2022-10-22T03:39:32;100693.84;;;12.80;100.00
47670;BME280;33408;52.062;11.722;2022-10-22T03:42:02;100693.03;;;12.76;100.00
47670;BME280;33408;52.062;11.722;2022-10-22T03:44:30;100693.91;;;12.77;100.00
47670;BME280;33408;52.062;11.722;2022-10-22T03:46:57;100694.75;;;12.77;100.00
47670;BME280;33408;52.062;11.722;2022-10-22T03:49:24;100699.97;;;12.77;100.00
47670;BME280;33408;52.062;11.722;2022-10-22T03:51:50;100702.56;;;12.77;100.00
47670;BME280;33408;52.062;11.722;2022-10-22T03:54:17;100692.25;;;12.74;100.00
47670;BME280;33408;52.062;11.722;2022-10-22T03:56:43;100697.69;;;12.65;100.00
47670;BME280;33408;52.062;11.722;2022-10-22T03:59:11;100701.03;;;12.70;100.00
47670;BME280;33408;52.062;11.722;2022-10-22T04:01:39;100699.16;;;12.75;100.00
47670;BME280;33408;52.062;11.722;2022-10-22T04:04:06;100699.34;;;12.69;100.00
47670;BME280;33408;52.062;11.722;2022-10-22T04:06:33;100699.28;;;12.71;100.00
47670;BME280;33408;52.062;11.722;2022-10-22T04:08:59;100700.16;;;12.70;100.00
47670;BME280;33408;52.062;11.722;2022-10-22T04:11:26;100696.81;;;12.66;100.00
47670;BME280;33408;52.062;11.722;2022-10-22T04:13:53;100699.34;;;12.69;100.00
47670;BME280;33408;52.062;11.722;2022-10-22T04:16:21;100696.88;;;12.63;100.00
47670;BME280;33408;52.062;11.722;2022-10-22T04:18:49;100692.72;;;12.57;100.00
47670;BME280;33408;52.062;11.722;2022-10-22T04:21:17;100701.28;;;12.61;100.00
47670;BME280;33408;52.062;11.722;2022-10-22T04:23:45;100698.81;;;12.56;100.00
47670;BME280;33408;52.062;11.722;2022-10-22T04:26:12;100703.09;;;12.59;100.00
47670;BME280;33408;52.062;11.722;2022-10-22T04:28:39;100710.91;;;12.59;100.00
47670;BME280;33408;52.062;11.722;2022-10-22T04:31:07;100711.00;;;12.54;100.00
47670;BME280;33408;52.062;11.722;2022-10-22T04:33:35;100711.06;;;12.53;100.00
47670;BME280;33408;52.062;11.722;2022-10-22T04:36:05;100719.00;;;12.47;100.00
47670;BME280;33408;52.062;11.722;2022-10-22T04:38:32;100711.94;;;12.52;100.00
47670;BME280;33408;52.062;11.722;2022-10-22T04:41:07;100715.47;;;12.49;100.00
47670;BME280;33408;52.062;11.722;2022-10-22T04:43:34;100720.66;;;12.49;100.00
47670;BME280;33408;52.062;11.722;2022-10-22T04:46:00;100721.75;;;12.40;100.00
47670;BME280;33408;52.062;11.722;2022-10-22T04:48:27;100726.94;;;12.42;100.00
47670;BME280;33408;52.062;11.722;2022-10-22T04:50:55;100733.19;;;12.35;100.00
47670;BME280;33408;52.062;11.722;2022-10-22T04:53:22;100733.16;;;12.36;100.00
47670;BME280;33408;52.062;11.722;2022-10-22T04:55:48;100721.00;;;12.37;100.00
47670;BME280;33408;52.062;11.722;2022-10-22T04:58:15;100731.47;;;12.34;100.00
47670;BME280;33408;52.062;11.722;2022-10-22T05:00:41;100728.00;;;12.35;100.00
47670;BME280;33408;52.062;11.722;2022-10-22T05:03:08;100736.69;;;12.34;100.00
47670;BME280;33408;52.062;11.722;2022-10-22T05:05:34;100733.38;;;12.27;100.00
47670;BME280;33408;52.062;11.722;2022-10-22T05:08:02;100729.78;;;12.31;100.00
47670;BME280;33408;52.062;11.722;2022-10-22T05:10:29;100735.91;;;12.30;100.00
47670;BME280;33408;52.062;11.722;2022-10-22T05:12:55;100733.66;;;12.16;100.00
47670;BME280;33408;52.062;11.722;2022-10-22T05:15:22;100742.50;;;12.09;100.00
47670;BME280;33408;52.062;11.722;2022-10-22T05:17:48;100739.78;;;12.12;100.00
47670;BME280;33408;52.062;11.722;2022-10-22T05:20:15;100740.63;;;12.14;100.00
47670;BME280;33408;52.062;11.722;2022-10-22T05:22:41;100734.50;;;12.17;100.00
47670;BME280;33408;52.062;11.722;2022-10-22T05:25:09;100735.25;;;12.22;100.00
47670;BME280;33408;52.062;11.722;2022-10-22T05:27:36;100732.66;;;12.22;100.00
47670;BME280;33408;52.062;11.722;2022-10-22T05:30:03;100735.38;;;12.17;100.00
47670;BME280;33408;52.062;11.722;2022-10-22T05:32:30;100736.28;;;12.15;100.00
47670;BME280;33408;52.062;11.722;2022-10-22T05:34:56;100745.00;;;12.12;100.00
47670;BME280;33408;52.062;11.722;2022-10-22T05:37:23;100745.91;;;12.11;100.00
47670;BME280;33408;52.062;11.722;2022-10-22T05:39:49;100736.22;;;12.18;100.00
47670;BME280;33408;52.062;11.722;2022-10-22T05:42:17;100733.72;;;12.13;100.00
47670;BME280;33408;52.062;11.722;2022-10-22T05:44:44;100720.00;;;12.08;100.00
47670;BME280;33408;52.062;11.722;2022-10-22T05:47:10;100717.44;;;12.07;100.00
47670;BME280;33408;52.062;11.722;2022-10-22T05:49:37;100722.63;;;12.07;100.00
47670;BME280;33408;52.062;11.722;2022-10-22T05:52:03;100725.16;;;12.10;100.00
47670;BME280;33408;52.062;11.722;2022-10-22T05:54:30;100740.56;;;12.17;100.00
47670;BME280;33408;52.062;11.722;2022-10-22T05:56:56;100746.50;;;12.22;100.00
47670;BME280;33408;52.062;11.722;2022-10-22T05:59:24;100744.97;;;12.14;100.00
47670;BME280;33408;52.062;11.722;2022-10-22T06:01:51;100744.88;;;12.17;100.00
47670;BME280;33408;52.062;11.722;2022-10-22T06:04:17;100751.00;;;12.16;100.00
47670;BME280;33408;52.062;11.722;2022-10-22T06:06:45;100755.16;;;12.21;100.00
47670;BME280;33408;52.062;11.722;2022-10-22T06:09:15;100759.53;;;12.21;100.00
47670;BME280;33408;52.062;11.722;2022-10-22T06:11:42;100762.16;;;12.19;100.00
47670;BME280;33408;52.062;11.722;2022-10-22T06:14:09;100762.81;;;12.28;100.00
47670;BME280;33408;52.062;11.722;2022-10-22T06:16:38;100761.97;;;12.27;100.00
47670;BME280;33408;52.062;11.722;2022-10-22T06:19:04;100767.16;;;12.27;100.00
47670;BME280;33408;52.062;11.722;2022-10-22T06:21:31;100766.28;;;12.27;100.00
47670;BME280;33408;52.062;11.722;2022-10-22T06:23:59;100767.78;;;12.37;100.00
47670;BME280;33408;52.062;11.722;2022-10-22T06:26:26;100767.84;;;12.35;100.00
47670;BME280;33408;52.062;11.722;2022-10-22T06:28:53;100772.88;;;12.42;100.00
47670;BME280;33408;52.062;11.722;2022-10-22T06:31:20;100780.66;;;12.43;100.00
47670;BME280;33408;52.062;11.722;2022-10-22T06:33:50;100778.03;;;12.43;100.00
47670;BME280;33408;52.062;11.722;2022-10-22T06:36:19;100785.75;;;12.46;100.00
47670;BME280;33408;52.062;11.722;2022-10-22T06:38:46;100793.59;;;12.45;100.00
47670;BME280;33408;52.062;11.722;2022-10-22T06:41:15;100795.28;;;12.46;100.00
47670;BME280;33408;52.062;11.722;2022-10-22T06:43:43;100802.25;;;12.45;100.00
47670;BME280;33408;52.062;11.722;2022-10-22T06:46:12;100804.06;;;12.42;100.00
47670;BME280;33408;52.062;11.722;2022-10-22T06:48:39;100802.16;;;12.48;100.00
47670;BME280;33408;52.062;11.722;2022-10-22T06:51:09;100814.56;;;12.38;100.00
47670;BME280;33408;52.062;11.722;2022-10-22T06:53:37;100824.97;;;12.37;100.00
47670;BME280;33408;52.062;11.722;2022-10-22T06:56:04;100824.06;;;12.38;100.00
47670;BME280;33408;52.062;11.722;2022-10-22T06:58:31;100824.63;;;12.51;100.00
47670;BME280;33408;52.062;11.722;2022-10-22T07:01:00;100829.56;;;12.62;100.00
47670;BME280;33408;52.062;11.722;2022-10-22T07:03:27;100827.63;;;12.70;100.00
47670;BME280;33408;52.062;11.722;2022-10-22T07:05:53;100831.91;;;12.72;100.00
47670;BME280;33408;52.062;11.722;2022-10-22T07:08:21;100831.94;;;12.71;100.00
47670;BME280;33408;52.062;11.722;2022-10-22T07:10:47;100837.19;;;12.69;100.00
47670;BME280;33408;52.062;11.722;2022-10-22T07:13:14;100840.44;;;12.77;100.00
47670;BME280;33408;52.062;11.722;2022-10-22T07:15:41;100844.00;;;12.73;100.00
47670;BME280;33408;52.062;11.722;2022-10-22T07:18:07;100841.88;;;12.88;100.00
47670;BME280;33408;52.062;11.722;2022-10-22T07:20:34;100847.94;;;12.90;100.00
47670;BME280;33408;52.062;11.722;2022-10-22T07:23:00;100842.56;;;12.96;100.00
47670;BME280;33408;52.062;11.722;2022-10-22T07:25:28;100851.22;;;12.97;100.00
47670;BME280;33408;52.062;11.722;2022-10-22T07:27:55;100851.91;;;13.03;100.00
47670;BME280;33408;52.062;11.722;2022-10-22T07:30:21;100854.59;;;13.00;100.00
47670;BME280;33408;52.062;11.722;2022-10-22T07:32:48;100856.03;;;13.10;100.00
47670;BME280;33408;52.062;11.722;2022-10-22T07:35:14;100855.88;;;13.17;100.00
47670;BME280;33408;52.062;11.722;2022-10-22T07:37:41;100859.31;;;13.19;100.00
47670;BME280;33408;52.062;11.722;2022-10-22T07:40:08;100861.84;;;13.22;100.00
47670;BME280;33408;52.062;11.722;2022-10-22T07:42:36;100868.59;;;13.27;100.00
47670;BME280;33408;52.062;11.722;2022-10-22T07:45:03;100869.50;;;13.26;100.00
47670;BME280;33408;52.062;11.722;2022-10-22T07:47:29;100872.28;;;13.20;100.00
47670;BME280;33408;52.062;11.722;2022-10-22T07:49:56;100880.13;;;13.19;100.00
47670;BME280;33408;52.062;11.722;2022-10-22T07:52:22;100883.50;;;13.22;100.00
47670;BME280;33408;52.062;11.722;2022-10-22T07:54:49;100884.09;;;13.32;100.00
47670;BME280;33408;52.062;11.722;2022-10-22T07:57:15;100889.06;;;13.43;100.00
47670;BME280;33408;52.062;11.722;2022-10-22T07:59:43;100888.25;;;13.39;100.00
47670;BME280;33408;52.062;11.722;2022-10-22T08:02:10;100891.63;;;13.44;100.00
47670;BME280;33408;52.062;11.722;2022-10-22T08:04:37;100893.19;;;13.50;100.00
47670;BME280;33408;52.062;11.722;2022-10-22T08:07:04;100892.16;;;13.56;100.00
47670;BME280;33408;52.062;11.722;2022-10-22T08:09:30;100885.06;;;13.61;100.00
47670;BME280;33408;52.062;11.722;2022-10-22T08:11:57;100890.13;;;13.67;100.00
47670;BME280;33408;52.062;11.722;2022-10-22T08:14:24;100894.22;;;13.74;100.00
47670;BME280;33408;52.062;11.722;2022-10-22T08:16:52;100904.22;;;13.90;100.00
47670;BME280;33408;52.062;11.722;2022-10-22T08:19:18;100906.53;;;13.99;100.00
47670;BME280;33408;52.062;11.722;2022-10-22T08:21:47;100897.19;;;13.92;100.00
47670;BME280;33408;52.062;11.722;2022-10-22T08:24:14;100909.66;;;14.10;100.00
47670;BME280;33408;52.062;11.722;2022-10-22T08:26:40;100909.50;;;14.16;100.00
47670;BME280;33408;52.062;11.722;2022-10-22T08:29:07;100910.34;;;14.17;100.00
47670;BME280;33408;52.062;11.722;2022-10-22T08:31:34;100906.56;;;14.27;100.00
47670;BME280;33408;52.062;11.722;2022-10-22T08:34:01;100914.44;;;14.26;100.00
47670;BME280;33408;52.062;11.722;2022-10-22T08:36:30;100918.63;;;14.31;100.00
47670;BME280;33408;52.062;11.722;2022-10-22T08:38:58;100917.91;;;14.25;100.00
47670;BME280;33408;52.062;11.722;2022-10-22T08:41:25;100923.91;;;14.28;100.00
47670;BME280;33408;52.062;11.722;2022-10-22T08:46:58;100928.06;;;14.34;100.00
47670;BME280;33408;52.062;11.722;2022-10-22T08:49:30;100929.78;;;14.35;100.00
47670;BME280;33408;52.062;11.722;2022-10-22T08:51:59;100935.94;;;14.32;100.00
47670;BME280;33408;52.062;11.722;2022-10-22T08:54:32;100927.22;;;14.33;100.00
47670;BME280;33408;52.062;11.722;2022-10-22T08:57:11;100933.44;;;14.29;100.00
47670;BME280;33408;52.062;11.722;2022-10-22T08:59:45;100934.50;;;14.50;100.00
47670;BME280;33408;52.062;11.722;2022-10-22T09:02:24;100934.03;;;14.37;100.00
47670;BME280;33408;52.062;11.722;2022-10-22T09:05:01;100938.09;;;14.48;100.00
47670;BME280;33408;52.062;11.722;2022-10-22T09:07:31;100936.22;;;14.51;100.00
47670;BME280;33408;52.062;11.722;2022-10-22T09:09:59;100933.06;;;14.70;100.00
47670;BME280;33408;52.062;11.722;2022-10-22T09:12:26;100928.22;;;14.84;100.00
47670;BME280;33408;52.062;11.722;2022-10-22T09:14:53;100933.53;;;15.08;100.00
47670;BME280;33408;52.062;11.722;2022-10-22T09:17:25;100930.41;;;15.23;100.00
47670;BME280;33408;52.062;11.722;2022-10-22T09:20:05;100918.56;;;15.38;100.00
47670;BME280;33408;52.062;11.722;2022-10-22T09:22:39;100928.53;;;15.52;100.00
47670;BME280;33408;52.062;11.722;2022-10-22T09:25:18;100915.34;;;15.80;100.00
47670;BME280;33408;52.062;11.722;2022-10-22T09:27:46;100927.34;;;15.86;100.00
47670;BME280;33408;52.062;11.722;2022-10-22T09:30:16;100925.34;;;15.67;100.00
47670;BME280;33408;52.062;11.722;2022-10-22T09:32:43;100920.06;;;15.94;100.00
47670;BME280;33408;52.062;11.722;2022-10-22T09:35:13;100926.75;;;16.01;100.00
47670;BME280;33408;52.062;11.722;2022-10-22T09:37:47;100927.50;;;16.27;100.00
47670;BME280;33408;52.062;11.722;2022-10-22T09:40:15;100922.94;;;16.54;100.00
47670;BME280;33408;52.062;11.722;2022-10-22T09:42:43;100917.47;;;16.38;100.00
47670;BME280;33408;52.062;11.722;2022-10-22T09:45:16;100929.75;;;16.36;100.00
47670;BME280;33408;52.062;11.722;2022-10-22T09:47:44;100916.75;;;16.57;100.00
47670;BME280;33408;52.062;11.722;2022-10-22T09:50:25;100930.97;;;16.50;100.00
47670;BME280;33408;52.062;11.722;2022-10-22T09:52:59;100928.16;;;16.54;100.00
47670;BME280;33408;52.062;11.722;2022-10-22T09:55:27;100936.38;;;16.67;100.00
47670;BME280;33408;52.062;11.722;2022-10-22T09:57:55;100929.78;;;16.58;100.00
47670;BME280;33408;52.062;11.722;2022-10-22T10:00:22;100932.19;;;16.63;100.00
47670;BME280;33408;52.062;11.722;2022-10-22T10:02:53;100944.16;;;16.69;100.00
47670;BME280;33408;52.062;11.722;2022-10-22T10:05:27;100934.47;;;16.71;100.00
47670;BME280;33408;52.062;11.722;2022-10-22T10:07:54;100931.69;;;16.75;100.00
47670;BME280;33408;52.062;11.722;2022-10-22T10:10:28;100937.28;;;16.66;100.00
47670;BME280;33408;52.062;11.722;2022-10-22T10:13:04;100941.84;;;16.61;100.00
47670;BME280;33408;52.062;11.722;2022-10-22T10:15:37;100942.94;;;16.77;100.00
47670;BME280;33408;52.062;11.722;2022-10-22T10:18:11;100941.69;;;16.88;100.00
47670;BME280;33408;52.062;11.722;2022-10-22T10:20:51;100928.09;;;17.00;100.00
47670;BME280;33408;52.062;11.722;2022-10-22T10:23:26;100928.63;;;17.08;100.00
47670;BME280;33408;52.062;11.722;2022-10-22T10:25:59;100934.38;;;17.17;100.00
47670;BME280;33408;52.062;11.722;2022-10-22T10:28:38;100929.28;;;17.13;100.00
47670;BME280;33408;52.062;11.722;2022-10-22T10:31:17;100918.19;;;17.27;100.00
47670;BME280;33408;52.062;11.722;2022-10-22T10:33:50;100919.03;;;17.28;100.00
47670;BME280;33408;52.062;11.722;2022-10-22T10:36:26;100923.72;;;17.40;100.00
47670;BME280;33408;52.062;11.722;2022-10-22T10:38:59;100919.50;;;17.38;100.00
47670;BME280;33408;52.062;11.722;2022-10-22T10:41:37;100920.47;;;17.35;100.00
47670;BME280;33408;52.062;11.722;2022-10-22T10:44:28;100925.63;;;17.37;100.00
47670;BME280;33408;52.062;11.722;2022-10-22T10:47:08;100925.75;;;17.54;100.00
47670;BME280;33408;52.062;11.722;2022-10-22T10:49:37;100927.84;;;17.66;100.00
47670;BME280;33408;52.062;11.722;2022-10-22T10:52:12;100918.78;;;17.53;100.00
47670;BME280;33408;52.062;11.722;2022-10-22T10:54:45;100923.78;;;17.59;100.00
47670;BME280;33408;52.062;11.722;2022-10-22T10:57:21;100925.22;;;17.66;100.00
47670;BME280;33408;52.062;11.722;2022-10-22T11:00:04;100921.16;;;17.78;100.00
47670;BME280;33408;52.062;11.722;2022-10-22T11:05:52;100929.53;;;17.86;100.00
47670;BME280;33408;52.062;11.722;2022-10-22T11:08:21;100931.78;;;17.96;100.00
47670;BME280;33408;52.062;11.722;2022-10-22T11:10:51;100925.75;;;17.94;100.00
47670;BME280;33408;52.062;11.722;2022-10-22T11:13:26;100918.31;;;18.03;100.00
47670;BME280;33408;52.062;11.722;2022-10-22T11:15:58;100915.16;;;18.14;100.00
47670;BME280;33408;52.062;11.722;2022-10-22T11:18:29;100922.13;;;18.15;100.00
47670;BME280;33408;52.062;11.722;2022-10-22T11:21:09;100922.19;;;18.14;100.00
47670;BME280;33408;52.062;11.722;2022-10-22T11:23:43;100933.47;;;18.16;100.00
47670;BME280;33408;52.062;11.722;2022-10-22T11:26:17;100927.66;;;18.09;100.00
47670;BME280;33408;52.062;11.722;2022-10-22T11:28:48;100926.59;;;18.13;100.00
47670;BME280;33408;52.062;11.722;2022-10-22T11:31:16;100932.75;;;18.31;100.00
47670;BME280;33408;52.062;11.722;2022-10-22T11:33:49;100933.72;;;18.29;100.00
47670;BME280;33408;52.062;11.722;2022-10-22T11:36:20;100926.25;;;18.21;100.00
47670;BME280;33408;52.062;11.722;2022-10-22T11:38:49;100932.47;;;18.37;100.00
47670;BME280;33408;52.062;11.722;2022-10-22T11:41:18;100919.78;;;18.28;100.00
47670;BME280;33408;52.062;11.722;2022-10-22T11:43:56;100925.22;;;18.43;100.00
47670;BME280;33408;52.062;11.722;2022-10-22T11:46:33;100918.81;;;18.48;100.00
47670;BME280;33408;52.062;11.722;2022-10-22T11:49:13;100922.16;;;18.52;100.00
47670;BME280;33408;52.062;11.722;2022-10-22T11:51:42;100917.50;;;18.57;100.00
47670;BME280;33408;52.062;11.722;2022-10-22T11:54:36;100914.75;;;18.60;100.00
47670;BME280;33408;52.062;11.722;2022-10-22T11:57:21;100925.25;;;18.60;100.00
47670;BME280;33408;52.062;11.722;2022-10-22T11:59:52;100927.81;;;18.79;100.00
47670;BME280;33408;52.062;11.722;2022-10-22T12:02:28;100922.19;;;18.87;100.00
47670;BME280;33408;52.062;11.722;2022-10-22T12:08:30;100919.47;;;18.88;100.00
47670;BME280;33408;52.062;11.722;2022-10-22T12:11:12;100913.78;;;18.98;100.00
47670;BME280;33408;52.062;11.722;2022-10-22T12:16:39;100910.28;;;19.15;100.00
47670;BME280;33408;52.062;11.722;2022-10-22T12:19:12;100913.59;;;19.18;100.00
47670;BME280;33408;52.062;11.722;2022-10-22T12:21:42;100916.53;;;19.29;100.00
47670;BME280;33408;52.062;11.722;2022-10-22T12:24:12;100918.59;;;19.40;100.00
47670;BME280;33408;52.062;11.722;2022-10-22T12:26:41;100920.06;;;19.28;100.00
47670;BME280;33408;52.062;11.722;2022-10-22T12:29:12;100925.50;;;19.25;100.00
47670;BME280;33408;52.062;11.722;2022-10-22T12:31:40;100929.13;;;19.40;100.00
47670;BME280;33408;52.062;11.722;2022-10-22T12:34:12;100923.03;;;19.56;100.00
47670;BME280;33408;52.062;11.722;2022-10-22T12:36:39;100921.19;;;19.58;100.00
47670;BME280;33408;52.062;11.722;2022-10-22T12:39:10;100918.72;;;19.55;100.00
47670;BME280;33408;52.062;11.722;2022-10-22T12:41:38;100919.00;;;19.66;100.00
47670;BME280;33408;52.062;11.722;2022-10-22T12:44:09;100917.59;;;19.76;100.00
47670;BME280;33408;52.062;11.722;2022-10-22T12:46:36;100918.56;;;19.74;100.00
47670;BME280;33408;52.062;11.722;2022-10-22T12:49:05;100913.91;;;19.63;100.00
47670;BME280;33408;52.062;11.722;2022-10-22T12:51:33;100918.66;;;19.56;100.00
47670;BME280;33408;52.062;11.722;2022-10-22T12:54:05;100916.25;;;19.52;100.00
47670;BME280;33408;52.062;11.722;2022-10-22T12:56:33;100910.31;;;19.64;100.00
47670;BME280;33408;52.062;11.722;2022-10-22T12:59:02;100901.19;;;19.71;100.00